Rode Zora V. Amsterd — DIPU2 — position and weather

sailwx.info

Track history (hours):
 
Tides and Currents Weather Stations Pressure Air Temp Water Temp Dewpoint Dewpoint Depression Visibility Wind Speed Wind Dir Waves Ship Positions

Rode Zora V. Amsterd

Last reported at 2018-May-19 21:59 UTC. Time now 2018-May-23 03:10 UTC.
Position N 37°44' W 025°40'.

Length 12 m.

Type: Sailing vessel. MMSI: 211658760.

Date/timePositionNaut miles runAvg speedWind from/ knotsBaromVisibWave heightAir tempDewpointWater temp
2018-May-19 21:59N 37°44' W 025°40'1 1.4
2018-May-19 21:30N 37°44' W 025°40'2 4.2
2018-May-19 21:00N 37°43' W 025°43'2 4.4
2018-May-19 20:30N 37°43' W 025°46'2 3.9
2018-May-19 20:00N 37°42' W 025°48'2 3.8
2018-May-19 19:30N 37°42' W 025°50'2 4.6
2018-May-19 19:00N 37°42' W 025°53'2 4.7
2018-May-19 18:30N 37°42' W 025°56'2 4.7
2018-May-19 18:00N 37°41' W 025°59'2 4.8
2018-May-19 17:30N 37°41' W 026°02'2 4.7
2018-May-19 17:00N 37°41' W 026°05'2 3.1
2018-May-19 16:30N 37°42' W 026°07'1 2.8
2018-May-19 16:00N 37°42' W 026°09'2 3.2
2018-May-19 15:30N 37°42' W 026°11'2 4.3
2018-May-19 15:00N 37°42' W 026°13'2 4.1
2018-May-19 14:30N 37°43' W 026°16'2 3.8
2018-May-19 14:00N 37°43' W 026°18'2 3.9
2018-May-19 13:30N 37°44' W 026°21'2 4.3
2018-May-19 13:00N 37°45' W 026°23'2 4.6
2018-May-19 12:30N 37°46' W 026°26'2 4.4
2018-May-19 12:00N 37°46' W 026°28'2 3.4
2018-May-19 11:30N 37°47' W 026°31'2 3.9
2018-May-19 11:00N 37°47' W 026°33'2 4.2
2018-May-19 10:30N 37°47' W 026°36'2 3.6
2018-May-19 10:00N 37°47' W 026°38'2 4.4
2018-May-19 09:30N 37°48' W 026°40'2 4.7
2018-May-19 09:00N 37°49' W 026°43'3 5.1
2018-May-19 08:30N 37°51' W 026°46'2 4.7
2018-May-19 07:59N 37°52' W 026°48'2 5.0
2018-May-19 07:30N 37°53' W 026°51'3 5.4
2018-May-19 07:00N 37°54' W 026°54'3 5.6
2018-May-19 06:30N 37°56' W 026°57'3 5.3
2018-May-19 05:58N 37°57' W 027°00'2 4.3
2018-May-19 05:30N 37°58' W 027°03'3 5.3
2018-May-19 05:00N 37°59' W 027°06'3 5.5
2018-May-19 04:29N 37°60' W 027°09'3 6.4
2018-May-19 04:00N 38°02' W 027°12'5 5.7
2018-May-19 03:11N 38°03' W 027°18'1 5.6
2018-May-19 02:58N 38°04' W 027°19'2 3.7
2018-May-19 02:30N 38°04' W 027°21'2 3.9
2018-May-19 02:00N 38°05' W 027°24'2 3.9
2018-May-19 01:30N 38°06' W 027°26'2 4.4
2018-May-19 01:00N 38°07' W 027°28'2 4.5
2018-May-19 00:30N 38°09' W 027°30'3 5.1
2018-May-19 00:00N 38°10' W 027°33'2 4.7
2018-May-18 23:30N 38°12' W 027°35'2 4.9
2018-May-18 23:00N 38°14' W 027°37'2 4.9
2018-May-18 22:30N 38°15' W 027°39'2 4.5
2018-May-18 22:00N 38°17' W 027°42'3 5.4
2018-May-18 21:30N 38°18' W 027°44'3 5.1
2018-May-18 21:00N 38°20' W 027°47'2 4.3
2018-May-18 20:30N 38°21' W 027°49'2 4.4
2018-May-18 20:00N 38°23' W 027°50'2 3.7
2018-May-18 19:30N 38°25' W 027°52'2 3.5
2018-May-18 19:00N 38°26' W 027°53'1 2.5
2018-May-18 18:30N 38°27' W 027°55'2 4.5
2018-May-18 18:00N 38°27' W 027°57'2 4.6
2018-May-18 17:30N 38°28' W 027°60'2 4.5
2018-May-18 17:00N 38°29' W 028°03'2 4.4
2018-May-18 16:30N 38°30' W 028°05'2 4.1
2018-May-18 16:00N 38°31' W 028°08'2 4.3
2018-May-18 15:30N 38°32' W 028°10'2 4.5
2018-May-18 15:00N 38°33' W 028°13'2 4.3
2018-May-18 14:30N 38°33' W 028°15'2 4.5
2018-May-18 14:00N 38°34' W 028°18'2 4.6
2018-May-18 13:29N 38°34' W 028°21'2 4.3
2018-May-18 13:00N 38°34' W 028°24'2 4.3
2018-May-18 12:30N 38°34' W 028°26'2 4.7
2018-May-18 12:00N 38°34' W 028°30'2 4.9
2018-May-18 11:30N 38°33' W 028°33'2 4.6
2018-May-18 11:00N 38°33' W 028°35'2 3.6
2018-May-18 10:30N 38°32' W 028°38'0 0.0
2018-May-18 10:00N 38°32' W 028°38'0 0.0
2018-May-18 09:30N 38°32' W 028°38'0 0.0
2018-May-18 09:00N 38°32' W 028°38'0 0.0
2018-May-18 08:27N 38°32' W 028°38'0 0.0
2018-May-18 08:00N 38°32' W 028°38'0 0.0
2018-May-18 07:27N 38°32' W 028°38'0 0.0
2018-May-18 07:00N 38°32' W 028°38'0 0.0
2018-May-18 06:30N 38°32' W 028°38'0 0.0
2018-May-18 06:00N 38°32' W 028°38'0 0.0
2018-May-18 05:30N 38°32' W 028°38'0 0.0
2018-May-18 05:00N 38°32' W 028°38'0 0.0
2018-May-18 04:30N 38°32' W 028°38'0 0.0
2018-May-18 04:00N 38°32' W 028°38'0 0.0
2018-May-18 03:30N 38°32' W 028°38'0 0.0
2018-May-18 03:00N 38°32' W 028°38'0 0.0
2018-May-18 02:30N 38°32' W 028°38'0 0.0
2018-May-18 02:00N 38°32' W 028°38'0 0.0
2018-May-18 01:30N 38°32' W 028°38'0 0.0
2018-May-18 00:57N 38°32' W 028°38'0 0.0
2018-May-18 00:30N 38°32' W 028°38'0 0.0
2018-May-18 00:00N 38°32' W 028°38'0 0.0
2018-May-17 23:30N 38°32' W 028°38'0 0.0
2018-May-17 23:00N 38°32' W 028°38'0 0.0
2018-May-17 22:30N 38°32' W 028°38'0 0.0
2018-May-17 22:00N 38°32' W 028°38'0 0.0
2018-May-17 21:30N 38°32' W 028°38'0 0.0
2018-May-17 21:00N 38°32' W 028°38'0 0.0
2018-May-17 20:30N 38°32' W 028°38'0 0.0
2018-May-17 20:00N 38°32' W 028°38'0 0.0
2018-May-17 19:30N 38°32' W 028°38'0 0.0
2018-May-17 19:00N 38°32' W 028°38'0 0.0
2018-May-17 18:30N 38°32' W 028°38'0 0.0
2018-May-17 18:00N 38°32' W 028°38'0 0.0
2018-May-17 17:30N 38°32' W 028°38'0 0.0
2018-May-17 17:00N 38°32' W 028°38'0 0.0
2018-May-17 16:30N 38°32' W 028°38'0 0.0
2018-May-17 16:00N 38°32' W 028°38'0 0.0
2018-May-17 15:30N 38°32' W 028°38'0 0.0
2018-May-17 15:00N 38°32' W 028°38'0 0.0
2018-May-17 14:30N 38°32' W 028°38'0 0.0
2018-May-17 14:00N 38°32' W 028°38'0 0.0
2018-May-17 13:30N 38°32' W 028°38'0 0.0
2018-May-17 13:00N 38°32' W 028°38'0 0.0
2018-May-17 12:30N 38°32' W 028°38'0 0.0
2018-May-17 12:00N 38°32' W 028°38'0 0.0
2018-May-17 11:30N 38°32' W 028°38'0 0.0
2018-May-17 11:00N 38°32' W 028°38'0 0.0
2018-May-17 10:30N 38°32' W 028°38'0 0.0
2018-May-17 10:00N 38°32' W 028°38'0 0.0
2018-May-17 09:30N 38°32' W 028°38'0 0.0
2018-May-17 09:00N 38°32' W 028°38'0 0.0
2018-May-17 08:30N 38°32' W 028°38'0 0.0
2018-May-17 08:00N 38°32' W 028°38'0 0.0
2018-May-17 07:30N 38°32' W 028°38'0 0.0
2018-May-17 07:00N 38°32' W 028°38'0 0.0
2018-May-17 06:30N 38°32' W 028°38'0 0.0
2018-May-17 06:00N 38°32' W 028°38'0 0.0
2018-May-17 05:30N 38°32' W 028°38'0 0.0
2018-May-17 05:00N 38°32' W 028°38'0 0.0
2018-May-17 04:30N 38°32' W 028°38'0 0.0
2018-May-17 04:00N 38°32' W 028°38'0 0.0
2018-May-17 03:30N 38°32' W 028°38'0 0.0
2018-May-17 03:00N 38°32' W 028°38'0 0.0
2018-May-17 02:30N 38°32' W 028°38'0 0.0
2018-May-17 02:00N 38°32' W 028°38'0 0.0
2018-May-17 01:30N 38°32' W 028°38'0 0.0
2018-May-17 01:00N 38°32' W 028°38'0 0.0
2018-May-17 00:30N 38°32' W 028°38'0 0.0
2018-May-17 00:00N 38°32' W 028°38'0 0.0
2018-May-16 23:30N 38°32' W 028°38'0 0.0
2018-May-16 23:00N 38°32' W 028°38'0 0.0
2018-May-16 22:30N 38°32' W 028°38'0 0.0
2018-May-16 22:00N 38°32' W 028°38'0 0.0
2018-May-16 21:27N 38°32' W 028°38'0 0.0
2018-May-16 21:00N 38°32' W 028°38'0 0.0
2018-May-16 20:30N 38°32' W 028°38'0 0.0
2018-May-16 20:00N 38°32' W 028°38'0 0.0
2018-May-16 19:30N 38°32' W 028°38'0 0.0
2018-May-16 19:00N 38°32' W 028°38'0 0.0
2018-May-16 18:30N 38°32' W 028°38'0 0.0
2018-May-16 18:00N 38°32' W 028°38'0 0.0
2018-May-16 17:30N 38°32' W 028°38'0 0.0
2018-May-16 17:00N 38°32' W 028°38'0 0.0
2018-May-16 16:30N 38°32' W 028°38'0 0.0
2018-May-16 16:00N 38°32' W 028°38'0 0.0
2018-May-16 15:30N 38°32' W 028°38'0 0.0
2018-May-16 15:00N 38°32' W 028°38'0 0.0
2018-May-16 14:30N 38°32' W 028°38'0 0.0
2018-May-16 14:00N 38°32' W 028°38'0 0.0
2018-May-16 13:30N 38°32' W 028°38'0 0.0
2018-May-16 13:00N 38°32' W 028°38'0 0.0
2018-May-16 12:30N 38°32' W 028°38'0 0.0
2018-May-16 12:00N 38°32' W 028°38'0 0.0
2018-May-16 11:30N 38°32' W 028°38'0 0.0
2018-May-16 11:00N 38°32' W 028°38'0 0.0
2018-May-16 10:30N 38°32' W 028°38'0 0.0
2018-May-16 10:00N 38°32' W 028°38'0 0.0
2018-May-16 09:30N 38°32' W 028°38'0 0.0
2018-May-16 09:00N 38°32' W 028°38'0 0.0
2018-May-16 08:30N 38°32' W 028°38'0 0.0
2018-May-15 21:21N 38°32' W 028°38'0 0.0
2018-May-15 21:00N 38°32' W 028°38'0 0.0
2018-May-15 20:30N 38°32' W 028°38'0 0.0
2018-May-15 20:00N 38°32' W 028°38'0 0.0
2018-May-15 19:30N 38°32' W 028°38'0 0.0
2018-May-15 19:00N 38°32' W 028°38'0 0.0
2018-May-15 18:30N 38°32' W 028°38'0 0.0
2018-May-15 18:00N 38°32' W 028°38'0 0.0
2018-May-15 17:30N 38°32' W 028°38'0 0.0
2018-May-15 17:00N 38°32' W 028°38'0 0.0
2018-May-15 16:30N 38°32' W 028°38'0 0.0
2018-May-15 16:00N 38°32' W 028°38'0 0.0
2018-May-15 15:30N 38°32' W 028°38'0 0.0
2018-May-15 15:00N 38°32' W 028°38'0 0.0
2018-May-15 14:30N 38°32' W 028°38'0 0.0
2018-May-15 13:57N 38°32' W 028°38'0 0.0
2018-May-15 13:30N 38°32' W 028°38'0 0.0
2018-May-15 13:00N 38°32' W 028°38'0 0.0
2018-May-15 12:30N 38°32' W 028°38'0 0.0
2018-May-15 12:00N 38°32' W 028°38'0 0.0
2018-May-15 11:30N 38°32' W 028°38'0 0.0
2018-May-15 11:00N 38°32' W 028°38'0 0.0
2018-May-15 10:30N 38°32' W 028°38'0 0.0
2018-May-15 10:00N 38°32' W 028°38'0 0.0
2018-May-15 09:28N 38°32' W 028°38'0 0.0
2018-May-15 09:00N 38°32' W 028°38'0 0.0
2018-May-15 08:28N 38°32' W 028°38'0 0.0
2018-May-14 10:19N 38°32' W 028°38'0 0.1
2018-May-14 10:00N 38°32' W 028°38'0 0.2
2018-May-14 09:30N 38°32' W 028°38'1 1.1
2018-May-14 09:00N 38°32' W 028°37'2 4.5
2018-May-14 08:30N 38°30' W 028°39'2 4.7
2018-May-14 08:00N 38°30' W 028°42'2 3.8
2018-May-14 07:30N 38°30' W 028°44'3 5.0
2018-May-14 07:00N 38°30' W 028°48'1 2.7
2018-May-14 06:30N 38°30' W 028°49'1 2.7
2018-May-14 06:00N 38°31' W 028°51'3 5.7
2018-May-14 05:30N 38°30' W 028°54'1 2.2
2018-May-14 05:00N 38°31' W 028°55'3 5.4
2018-May-14 04:30N 38°34' W 028°54'2 4.3
2018-May-14 04:00N 38°34' W 028°57'2 4.8
2018-May-14 03:30N 38°34' W 028°60'2 4.7
2018-May-14 03:00N 38°35' W 029°02'2 4.6
2018-May-14 02:30N 38°36' W 029°05'3 5.2
2018-May-14 02:00N 38°37' W 029°08'3 5.4
2018-May-14 01:30N 38°38' W 029°11'3 5.3
2018-May-14 01:00N 38°39' W 029°15'3 5.2
2018-May-14 00:30N 38°40' W 029°18'3 5.2
2018-May-14 00:00N 38°41' W 029°21'3 5.2
2018-May-13 23:30N 38°42' W 029°24'3 5.2
2018-May-13 23:00N 38°42' W 029°27'3 5.1
2018-May-13 22:28N 38°43' W 029°31'2 5.0
2018-May-13 22:00N 38°44' W 029°33'3 4.9
2018-May-13 21:28N 38°45' W 029°37'2 4.8
2018-May-13 21:00N 38°45' W 029°39'2 4.9
2018-May-13 20:30N 38°46' W 029°42'3 4.9
2018-May-13 19:58N 38°46' W 029°45'2 4.8
2018-May-13 19:31N 38°47' W 029°48'3 5.2
2018-May-13 18:59N 38°47' W 029°52'3 5.1
2018-May-13 18:28N 38°48' W 029°55'3 5.1
2018-May-13 17:55N 38°48' W 029°59'2 5.2
2018-May-13 17:28N 38°49' W 030°01'  
Track history (hours):
 
Tides and Currents Weather Stations Pressure Air Temp Water Temp Dewpoint Dewpoint Depression Visibility Wind Speed Wind Dir Waves Ship Positions

Rode Zora V. Amsterd

Last reported at 2018-May-19 21:59 UTC. Time now 2018-May-23 03:10 UTC.
Position N 37°44' W 025°40'.

Length 12 m.

Type: Sailing vessel. MMSI: 211658760.

Date/timePositionNaut miles runAvg speedWind from/ knotsBaromVisibWave heightAir tempDewpointWater temp
2018-May-19 21:59N 37°44' W 025°40'1 1.4
2018-May-19 21:30N 37°44' W 025°40'2 4.2
2018-May-19 21:00N 37°43' W 025°43'2 4.4
2018-May-19 20:30N 37°43' W 025°46'2 3.9
2018-May-19 20:00N 37°42' W 025°48'2 3.8
2018-May-19 19:30N 37°42' W 025°50'2 4.6
2018-May-19 19:00N 37°42' W 025°53'2 4.7
2018-May-19 18:30N 37°42' W 025°56'2 4.7
2018-May-19 18:00N 37°41' W 025°59'2 4.8
2018-May-19 17:30N 37°41' W 026°02'2 4.7
2018-May-19 17:00N 37°41' W 026°05'2 3.1
2018-May-19 16:30N 37°42' W 026°07'1 2.8
2018-May-19 16:00N 37°42' W 026°09'2 3.2
2018-May-19 15:30N 37°42' W 026°11'2 4.3
2018-May-19 15:00N 37°42' W 026°13'2 4.1
2018-May-19 14:30N 37°43' W 026°16'2 3.8
2018-May-19 14:00N 37°43' W 026°18'2 3.9
2018-May-19 13:30N 37°44' W 026°21'2 4.3
2018-May-19 13:00N 37°45' W 026°23'2 4.6
2018-May-19 12:30N 37°46' W 026°26'2 4.4
2018-May-19 12:00N 37°46' W 026°28'2 3.4
2018-May-19 11:30N 37°47' W 026°31'2 3.9
2018-May-19 11:00N 37°47' W 026°33'2 4.2
2018-May-19 10:30N 37°47' W 026°36'2 3.6
2018-May-19 10:00N 37°47' W 026°38'2 4.4
2018-May-19 09:30N 37°48' W 026°40'2 4.7
2018-May-19 09:00N 37°49' W 026°43'3 5.1
2018-May-19 08:30N 37°51' W 026°46'2 4.7
2018-May-19 07:59N 37°52' W 026°48'2 5.0
2018-May-19 07:30N 37°53' W 026°51'3 5.4
2018-May-19 07:00N 37°54' W 026°54'3 5.6
2018-May-19 06:30N 37°56' W 026°57'3 5.3
2018-May-19 05:58N 37°57' W 027°00'2 4.3
2018-May-19 05:30N 37°58' W 027°03'3 5.3
2018-May-19 05:00N 37°59' W 027°06'3 5.5
2018-May-19 04:29N 37°60' W 027°09'3 6.4
2018-May-19 04:00N 38°02' W 027°12'5 5.7
2018-May-19 03:11N 38°03' W 027°18'1 5.6
2018-May-19 02:58N 38°04' W 027°19'2 3.7
2018-May-19 02:30N 38°04' W 027°21'2 3.9
2018-May-19 02:00N 38°05' W 027°24'2 3.9
2018-May-19 01:30N 38°06' W 027°26'2 4.4
2018-May-19 01:00N 38°07' W 027°28'2 4.5
2018-May-19 00:30N 38°09' W 027°30'3 5.1
2018-May-19 00:00N 38°10' W 027°33'2 4.7
2018-May-18 23:30N 38°12' W 027°35'2 4.9
2018-May-18 23:00N 38°14' W 027°37'2 4.9
2018-May-18 22:30N 38°15' W 027°39'2 4.5
2018-May-18 22:00N 38°17' W 027°42'3 5.4
2018-May-18 21:30N 38°18' W 027°44'3 5.1
2018-May-18 21:00N 38°20' W 027°47'2 4.3
2018-May-18 20:30N 38°21' W 027°49'2 4.4
2018-May-18 20:00N 38°23' W 027°50'2 3.7
2018-May-18 19:30N 38°25' W 027°52'2 3.5
2018-May-18 19:00N 38°26' W 027°53'1 2.5
2018-May-18 18:30N 38°27' W 027°55'2 4.5
2018-May-18 18:00N 38°27' W 027°57'2 4.6
2018-May-18 17:30N 38°28' W 027°60'2 4.5
2018-May-18 17:00N 38°29' W 028°03'2 4.4
2018-May-18 16:30N 38°30' W 028°05'2 4.1
2018-May-18 16:00N 38°31' W 028°08'2 4.3
2018-May-18 15:30N 38°32' W 028°10'2 4.5
2018-May-18 15:00N 38°33' W 028°13'2 4.3
2018-May-18 14:30N 38°33' W 028°15'2 4.5
2018-May-18 14:00N 38°34' W 028°18'2 4.6
2018-May-18 13:29N 38°34' W 028°21'2 4.3
2018-May-18 13:00N 38°34' W 028°24'2 4.3
2018-May-18 12:30N 38°34' W 028°26'2 4.7
2018-May-18 12:00N 38°34' W 028°30'2 4.9
2018-May-18 11:30N 38°33' W 028°33'2 4.6
2018-May-18 11:00N 38°33' W 028°35'2 3.6
2018-May-18 10:30N 38°32' W 028°38'0 0.0
2018-May-18 10:00N 38°32' W 028°38'0 0.0
2018-May-18 09:30N 38°32' W 028°38'0 0.0
2018-May-18 09:00N 38°32' W 028°38'0 0.0
2018-May-18 08:27N 38°32' W 028°38'0 0.0
2018-May-18 08:00N 38°32' W 028°38'0 0.0
2018-May-18 07:27N 38°32' W 028°38'0 0.0
2018-May-18 07:00N 38°32' W 028°38'0 0.0
2018-May-18 06:30N 38°32' W 028°38'0 0.0
2018-May-18 06:00N 38°32' W 028°38'0 0.0
2018-May-18 05:30N 38°32' W 028°38'0 0.0
2018-May-18 05:00N 38°32' W 028°38'0 0.0
2018-May-18 04:30N 38°32' W 028°38'0 0.0
2018-May-18 04:00N 38°32' W 028°38'0 0.0
2018-May-18 03:30N 38°32' W 028°38'0 0.0
2018-May-18 03:00N 38°32' W 028°38'0 0.0
2018-May-18 02:30N 38°32' W 028°38'0 0.0
2018-May-18 02:00N 38°32' W 028°38'0 0.0
2018-May-18 01:30N 38°32' W 028°38'0 0.0
2018-May-18 00:57N 38°32' W 028°38'0 0.0
2018-May-18 00:30N 38°32' W 028°38'0 0.0
2018-May-18 00:00N 38°32' W 028°38'0 0.0
2018-May-17 23:30N 38°32' W 028°38'0 0.0
2018-May-17 23:00N 38°32' W 028°38'0 0.0
2018-May-17 22:30N 38°32' W 028°38'0 0.0
2018-May-17 22:00N 38°32' W 028°38'0 0.0
2018-May-17 21:30N 38°32' W 028°38'0 0.0
2018-May-17 21:00N 38°32' W 028°38'0 0.0
2018-May-17 20:30N 38°32' W 028°38'0 0.0
2018-May-17 20:00N 38°32' W 028°38'0 0.0
2018-May-17 19:30N 38°32' W 028°38'0 0.0
2018-May-17 19:00N 38°32' W 028°38'0 0.0
2018-May-17 18:30N 38°32' W 028°38'0 0.0
2018-May-17 18:00N 38°32' W 028°38'0 0.0
2018-May-17 17:30N 38°32' W 028°38'0 0.0
2018-May-17 17:00N 38°32' W 028°38'0 0.0
2018-May-17 16:30N 38°32' W 028°38'0 0.0
2018-May-17 16:00N 38°32' W 028°38'0 0.0
2018-May-17 15:30N 38°32' W 028°38'0 0.0
2018-May-17 15:00N 38°32' W 028°38'0 0.0
2018-May-17 14:30N 38°32' W 028°38'0 0.0
2018-May-17 14:00N 38°32' W 028°38'0 0.0
2018-May-17 13:30N 38°32' W 028°38'0 0.0
2018-May-17 13:00N 38°32' W 028°38'0 0.0
2018-May-17 12:30N 38°32' W 028°38'0 0.0
2018-May-17 12:00N 38°32' W 028°38'0 0.0
2018-May-17 11:30N 38°32' W 028°38'0 0.0
2018-May-17 11:00N 38°32' W 028°38'0 0.0
2018-May-17 10:30N 38°32' W 028°38'0 0.0
2018-May-17 10:00N 38°32' W 028°38'0 0.0
2018-May-17 09:30N 38°32' W 028°38'0 0.0
2018-May-17 09:00N 38°32' W 028°38'0 0.0
2018-May-17 08:30N 38°32' W 028°38'0 0.0
2018-May-17 08:00N 38°32' W 028°38'0 0.0
2018-May-17 07:30N 38°32' W 028°38'0 0.0
2018-May-17 07:00N 38°32' W 028°38'0 0.0
2018-May-17 06:30N 38°32' W 028°38'0 0.0
2018-May-17 06:00N 38°32' W 028°38'0 0.0
2018-May-17 05:30N 38°32' W 028°38'0 0.0
2018-May-17 05:00N 38°32' W 028°38'0 0.0
2018-May-17 04:30N 38°32' W 028°38'0 0.0
2018-May-17 04:00N 38°32' W 028°38'0 0.0
2018-May-17 03:30N 38°32' W 028°38'0 0.0
2018-May-17 03:00N 38°32' W 028°38'0 0.0
2018-May-17 02:30N 38°32' W 028°38'0 0.0
2018-May-17 02:00N 38°32' W 028°38'0 0.0
2018-May-17 01:30N 38°32' W 028°38'0 0.0
2018-May-17 01:00N 38°32' W 028°38'0 0.0
2018-May-17 00:30N 38°32' W 028°38'0 0.0
2018-May-17 00:00N 38°32' W 028°38'0 0.0
2018-May-16 23:30N 38°32' W 028°38'0 0.0
2018-May-16 23:00N 38°32' W 028°38'0 0.0
2018-May-16 22:30N 38°32' W 028°38'0 0.0
2018-May-16 22:00N 38°32' W 028°38'0 0.0
2018-May-16 21:27N 38°32' W 028°38'0 0.0
2018-May-16 21:00N 38°32' W 028°38'0 0.0
2018-May-16 20:30N 38°32' W 028°38'0 0.0
2018-May-16 20:00N 38°32' W 028°38'0 0.0
2018-May-16 19:30N 38°32' W 028°38'0 0.0
2018-May-16 19:00N 38°32' W 028°38'0 0.0
2018-May-16 18:30N 38°32' W 028°38'0 0.0
2018-May-16 18:00N 38°32' W 028°38'0 0.0
2018-May-16 17:30N 38°32' W 028°38'0 0.0
2018-May-16 17:00N 38°32' W 028°38'0 0.0
2018-May-16 16:30N 38°32' W 028°38'0 0.0
2018-May-16 16:00N 38°32' W 028°38'0 0.0
2018-May-16 15:30N 38°32' W 028°38'0 0.0
2018-May-16 15:00N 38°32' W 028°38'0 0.0
2018-May-16 14:30N 38°32' W 028°38'0 0.0
2018-May-16 14:00N 38°32' W 028°38'0 0.0
2018-May-16 13:30N 38°32' W 028°38'0 0.0
2018-May-16 13:00N 38°32' W 028°38'0 0.0
2018-May-16 12:30N 38°32' W 028°38'0 0.0
2018-May-16 12:00N 38°32' W 028°38'0 0.0
2018-May-16 11:30N 38°32' W 028°38'0 0.0
2018-May-16 11:00N 38°32' W 028°38'0 0.0
2018-May-16 10:30N 38°32' W 028°38'0 0.0
2018-May-16 10:00N 38°32' W 028°38'0 0.0
2018-May-16 09:30N 38°32' W 028°38'0 0.0
2018-May-16 09:00N 38°32' W 028°38'0 0.0
2018-May-16 08:30N 38°32' W 028°38'0 0.0
2018-May-15 21:21N 38°32' W 028°38'0 0.0
2018-May-15 21:00N 38°32' W 028°38'0 0.0
2018-May-15 20:30N 38°32' W 028°38'0 0.0
2018-May-15 20:00N 38°32' W 028°38'0 0.0
2018-May-15 19:30N 38°32' W 028°38'0 0.0
2018-May-15 19:00N 38°32' W 028°38'0 0.0
2018-May-15 18:30N 38°32' W 028°38'0 0.0
2018-May-15 18:00N 38°32' W 028°38'0 0.0
2018-May-15 17:30N 38°32' W 028°38'0 0.0
2018-May-15 17:00N 38°32' W 028°38'0 0.0
2018-May-15 16:30N 38°32' W 028°38'0 0.0
2018-May-15 16:00N 38°32' W 028°38'0 0.0
2018-May-15 15:30N 38°32' W 028°38'0 0.0
2018-May-15 15:00N 38°32' W 028°38'0 0.0
2018-May-15 14:30N 38°32' W 028°38'0 0.0
2018-May-15 13:57N 38°32' W 028°38'0 0.0
2018-May-15 13:30N 38°32' W 028°38'0 0.0
2018-May-15 13:00N 38°32' W 028°38'0 0.0
2018-May-15 12:30N 38°32' W 028°38'0 0.0
2018-May-15 12:00N 38°32' W 028°38'0 0.0
2018-May-15 11:30N 38°32' W 028°38'0 0.0
2018-May-15 11:00N 38°32' W 028°38'0 0.0
2018-May-15 10:30N 38°32' W 028°38'0 0.0
2018-May-15 10:00N 38°32' W 028°38'0 0.0
2018-May-15 09:28N 38°32' W 028°38'0 0.0
2018-May-15 09:00N 38°32' W 028°38'0 0.0
2018-May-15 08:28N 38°32' W 028°38'0 0.0
2018-May-14 10:19N 38°32' W 028°38'0 0.1
2018-May-14 10:00N 38°32' W 028°38'0 0.2
2018-May-14 09:30N 38°32' W 028°38'1 1.1
2018-May-14 09:00N 38°32' W 028°37'2 4.5
2018-May-14 08:30N 38°30' W 028°39'2 4.7
2018-May-14 08:00N 38°30' W 028°42'2 3.8
2018-May-14 07:30N 38°30' W 028°44'3 5.0
2018-May-14 07:00N 38°30' W 028°48'1 2.7
2018-May-14 06:30N 38°30' W 028°49'1 2.7
2018-May-14 06:00N 38°31' W 028°51'3 5.7
2018-May-14 05:30N 38°30' W 028°54'1 2.2
2018-May-14 05:00N 38°31' W 028°55'3 5.4
2018-May-14 04:30N 38°34' W 028°54'2 4.3
2018-May-14 04:00N 38°34' W 028°57'2 4.8
2018-May-14 03:30N 38°34' W 028°60'2 4.7
2018-May-14 03:00N 38°35' W 029°02'2 4.6
2018-May-14 02:30N 38°36' W 029°05'3 5.2
2018-May-14 02:00N 38°37' W 029°08'3 5.4
2018-May-14 01:30N 38°38' W 029°11'3 5.3
2018-May-14 01:00N 38°39' W 029°15'3 5.2
2018-May-14 00:30N 38°40' W 029°18'3 5.2
2018-May-14 00:00N 38°41' W 029°21'3 5.2
2018-May-13 23:30N 38°42' W 029°24'3 5.2
2018-May-13 23:00N 38°42' W 029°27'3 5.1
2018-May-13 22:28N 38°43' W 029°31'2 5.0
2018-May-13 22:00N 38°44' W 029°33'3 4.9
2018-May-13 21:28N 38°45' W 029°37'2 4.8
2018-May-13 21:00N 38°45' W 029°39'2 4.9
2018-May-13 20:30N 38°46' W 029°42'3 4.9
2018-May-13 19:58N 38°46' W 029°45'2 4.8
2018-May-13 19:31N 38°47' W 029°48'3 5.2
2018-May-13 18:59N 38°47' W 029°52'3 5.1
2018-May-13 18:28N 38°48' W 029°55'3 5.1
2018-May-13 17:55N 38°48' W 029°59'2 5.2
2018-May-13 17:28N 38°49' W 030°01'  

Dump ship's entire track history